METAR Data
IDs: Format: Raw Decoded Include TAF

Data at: 1700 UTC 18 Feb 2019

METAR for:KDVN (Davenport Muni, IA, US)
Text:KDVN 181652Z AUTO 34007KT 10SM CLR M06/M10 A3040 RMK AO2 SLP305 T10611100
Temperature: -6.1°C ( 21°F)
Dewpoint:-10.0°C ( 14°F) [RH = 74%]
Pressure (altimeter):30.40 inches Hg (1029.5 mb) [Sea level pressure: 1030.5 mb]
Winds:from the NNW (340 degrees) at 8 MPH (7 knots; 3.6 m/s)
Visibility:10 or more sm (16+ km)
Ceiling:at least 12,000 feet AGL
Clouds:sky clear below 12,000 feet AGL
QC Flag:automated observation with no human augmentation